Preview of NWS' New Version of Forecast
This preview is not operational and should not be used for support decisions.
Latest weather observations around

CATHEDRAL CANYON (EDRC1)

Using International System of Units (Switch to English Units)
Date/ Time (PDT) Wind (kph) Vis. (km) Weather Sky Cond. Temp (°C) Rel. Humidity Wind Chill (°C) Heat Index (°C) Pressure Precip. (cm)
Air Dwpt 6 hour Altimeter (hPa) Sea level (hPa) 1 hr 3 hr 6 hr
Max Min
Sep 15 14:52 ENE 6   Clear   37 11     21%   36          
Sep 15 13:52 E 10   Clear   37 16     29%   37          
Sep 15 12:52 NE 8   Clear   36 15     30%   35          
Sep 15 11:52 E 11   Clear   35 16     32%   35          
Sep 15 10:52 E 13   Clear   34 16     34%   34          
Sep 15 09:52 E 10   Clear   33 11     25%   32          
Sep 15 08:52 NE 2   Clear   32 7     21%   30          
Sep 15 07:52 E 2   Clear   28 9     30%   27          
Sep 15 06:52 S 2   Clear   29 5     22%   28          
Sep 15 05:52 SSW 5   Clear   28 6     24%   27          
Sep 15 04:52 ENE 5   Clear   28 5     23%   27          
Sep 15 03:52 NNE 3   Clear   29 4     20%   28          
Sep 15 02:52 SE 2   Clear   29 6     23%   28          
Sep 15 01:52 SW 2   Clear   29 5     22%   28          
Sep 15 00:52 Calm   Clear   30 2     17%   28          
Sep 14 23:52 WSW 6   Clear   32 2     15%   30          
Sep 14 22:52 S 3   Clear   33 1     13%   31          
Sep 14 21:52 SSW 5   Clear   36        %              
Sep 14 20:52 S 8   Clear   35 2     13%   32          
Sep 14 19:52 W 5   Clear   36 2     12%   33          
Sep 14 18:52 W 5   Clear   38 2     11%   35          
Sep 14 17:52 E 10   Clear   40 3     10%   37          
Sep 14 16:52 E 10   Clear   42 1     8%   38          
Sep 14 15:52 E 8   Clear   42 -1     7%   38          
Sep 14 14:52 E 10   Clear   42 -1     7%   38          
Sep 14 13:52 ESE 10   Clear   42 2     9%   38          
Sep 14 12:52 E 11   Clear   41 0     8%   37          
Sep 14 11:52 ENE 5   Clear   41 2     9%   37          
Sep 14 10:52 E 6   Clear   39 1     9%   36          
Sep 14 09:52 E 3   Clear   37 6     15%   34          
Sep 14 08:52 ESE 3   Clear   34 4     15%   32          
Sep 14 07:52 E 2   Clear   31 5     19%   29          
Sep 14 06:52 WSW 8   Clear   29 2     17%   28          
Sep 14 05:52 W 3   Clear   28 2     19%   27          
Sep 14 04:52 Calm   Clear   28 3     20%   27          
Sep 14 03:52 SSW 6   Clear   29 3     19%   27          
Sep 14 02:52 W 3   Clear   29 3     19%   28          
Sep 14 01:52 W 5   Clear   30 4     19%   28          
Sep 14 00:52 SSE 3   Clear   29 7     24%   28          
Sep 13 23:52 SW 5   Clear   31 7     23%   29          
Sep 13 22:52 WSW 5   Clear   32 6     20%   30          
Sep 13 21:52 SSW 5   Clear   36 4     14%   33          
Sep 13 20:52 S 6   Clear   35 2     13%   32          
Sep 13 19:52 SSE 10   Clear   37 1     11%   34          
Sep 13 18:52 SW 11   Clear   39 -1     8%   35          
Sep 13 17:52 NNW 6   Clear   41 -2     7%   37          
Sep 13 16:52 SSE 3   Clear   42 -3     6%   37          
Sep 13 15:52 E 6   Clear   42 -3     6%   38          
Sep 13 14:52 NE 6   Clear   41 -4     6%   37          
Sep 13 13:52 ENE 10   Clear   41 -4     6%   37          
Sep 13 12:52 SW 5   Clear   41 -2     7%   36          
Sep 13 11:52 ESE 8   Clear   40 -1     8%   36          
Sep 13 10:52 N 5   Clear   39 -1     8%   35          
Sep 13 09:52 E 3   Clear   37 2     11%   34          
Sep 13 08:52 E 2   Clear   33 8     21%   31          
Sep 13 07:52 SSE 6   Clear   30 6     22%   28          
Sep 13 06:52 S 5   Clear   27 4     24%   26          
Sep 13 05:52 S 2   Clear   27 4     24%   26          
Sep 13 04:52 Calm   Clear   26 5     26%   25          
Sep 13 03:52 Calm   Clear   27 7     28%   26          
Sep 13 02:52 Calm   Clear   27 7     28%   26          
Sep 13 01:52 W 5   Clear   28 5     24%   27          
Sep 13 00:52 SSW 3   Clear   28 6     25%   27          
Sep 12 23:52 Calm   Clear   29 9     28%   28          
Sep 12 22:52 NNE 3   Clear   32 6     20%   30          
Sep 12 21:52 WNW 3   Clear   32 4     17%   30          
Sep 12 20:52 W 3   Clear   33 5     17%   31          
Sep 12 19:52 SSW 5   Clear   34 5     16%   32          
Sep 12 18:52 E 2   Clear   36 5     15%   33          
Sep 12 17:52 E 6   Clear   38 4     12%   36          
Sep 12 16:52 E 8   Clear   38 3     11%   35          
Sep 12 15:52 ESE 6   Clear   39 4     12%   36          
May 14 23:52 SSW 3   Clear   23 8     39%   22          
Notice The following observation data may not be complete
May 14 21:52     Clear            %              
Notice The following observation data may not be complete
May 14 16:52     Clear            %              
May 14 06:52 Calm   Clear   19 9     54%              
May 13 11:52     Clear   26 6     29%   25          
May 13 06:52 Calm   Clear   19 7     47%              
Notice The following observation data may not be complete
May 12 10:52     Clear            %              
May 12 04:52 SSE 2   Clear   17 6     51%              
May 12 00:52 NNW 3   Clear   18 7     49%              
May 11 23:52 WNW 2   Clear   19 7     46%              
Notice The following observation data may not be complete
May 11 21:52     Clear            %              
May 11 20:52     Clear   22 6     37%   21          
Notice The following observation data may not be complete
May 11 18:52     Clear            %              
Notice The following observation data may not be complete
May 11 09:52     Clear            %              
Jun 11 20:52 SW 23   Clear   23 3     27%   22          
Jun 11 15:52 NE 10   Clear   30 6     22%   28          
Jun 11 12:52     Clear   28 8     28%   27          
Jun 11 02:52 SSE 5   Clear   20 8     47%              
Jun 09 23:52 SE 3   Clear   26 9     33%   26          
Jun 09 09:52 NNE 5   Clear   32 7     22%   30          
Jun 09 07:52 ESE 2   Clear   28 9     31%   27          
Jun 07 19:52 NNE 3   Clear   34 10     23%   32